sensor_id;sensor_type;location;lat;lon;timestamp;P1;durP1;ratioP1;P2;durP2;ratioP2
43678;SDS011;29279;50.858;4.392;2022-12-08T00:00:36;54.10;;;28.65;;
43678;SDS011;29279;50.858;4.392;2022-12-08T00:03:01;46.90;;;27.67;;
43678;SDS011;29279;50.858;4.392;2022-12-08T00:05:27;51.47;;;28.80;;
43678;SDS011;29279;50.858;4.392;2022-12-08T00:08:11;48.17;;;28.27;;
43678;SDS011;29279;50.858;4.392;2022-12-08T00:10:56;48.15;;;27.65;;
43678;SDS011;29279;50.858;4.392;2022-12-08T00:13:22;55.92;;;28.02;;
43678;SDS011;29279;50.858;4.392;2022-12-08T00:15:47;49.20;;;26.85;;
43678;SDS011;29279;50.858;4.392;2022-12-08T00:18:13;45.13;;;29.17;;
43678;SDS011;29279;50.858;4.392;2022-12-08T00:20:39;44.55;;;26.60;;
43678;SDS011;29279;50.858;4.392;2022-12-08T00:23:04;49.45;;;26.33;;
43678;SDS011;29279;50.858;4.392;2022-12-08T00:25:30;46.75;;;27.08;;
43678;SDS011;29279;50.858;4.392;2022-12-08T00:27:59;48.60;;;25.90;;
43678;SDS011;29279;50.858;4.392;2022-12-08T00:30:25;44.63;;;26.38;;
43678;SDS011;29279;50.858;4.392;2022-12-08T00:32:50;47.85;;;26.40;;
43678;SDS011;29279;50.858;4.392;2022-12-08T00:35:16;45.15;;;25.42;;
43678;SDS011;29279;50.858;4.392;2022-12-08T00:37:42;52.83;;;26.65;;
43678;SDS011;29279;50.858;4.392;2022-12-08T00:40:07;47.75;;;27.27;;
43678;SDS011;29279;50.858;4.392;2022-12-08T00:42:33;49.95;;;27.20;;
43678;SDS011;29279;50.858;4.392;2022-12-08T00:44:59;49.78;;;27.90;;
43678;SDS011;29279;50.858;4.392;2022-12-08T00:47:24;46.30;;;25.73;;
43678;SDS011;29279;50.858;4.392;2022-12-08T00:49:50;41.78;;;25.55;;
43678;SDS011;29279;50.858;4.392;2022-12-08T00:52:16;55.38;;;29.02;;
43678;SDS011;29279;50.858;4.392;2022-12-08T00:54:41;51.50;;;27.50;;
43678;SDS011;29279;50.858;4.392;2022-12-08T00:57:07;51.92;;;27.65;;
43678;SDS011;29279;50.858;4.392;2022-12-08T00:59:33;47.20;;;26.80;;
43678;SDS011;29279;50.858;4.392;2022-12-08T01:01:59;45.38;;;27.27;;
43678;SDS011;29279;50.858;4.392;2022-12-08T01:04:24;49.55;;;28.42;;
43678;SDS011;29279;50.858;4.392;2022-12-08T01:06:50;55.92;;;28.73;;
43678;SDS011;29279;50.858;4.392;2022-12-08T01:09:16;54.10;;;26.98;;
43678;SDS011;29279;50.858;4.392;2022-12-08T01:11:42;46.80;;;27.50;;
43678;SDS011;29279;50.858;4.392;2022-12-08T01:14:09;50.97;;;28.50;;
43678;SDS011;29279;50.858;4.392;2022-12-08T01:16:35;49.28;;;28.35;;
43678;SDS011;29279;50.858;4.392;2022-12-08T01:19:01;53.67;;;27.65;;
43678;SDS011;29279;50.858;4.392;2022-12-08T01:21:28;46.13;;;25.88;;
43678;SDS011;29279;50.858;4.392;2022-12-08T01:23:54;57.50;;;26.67;;
43678;SDS011;29279;50.858;4.392;2022-12-08T01:26:20;57.08;;;27.73;;
43678;SDS011;29279;50.858;4.392;2022-12-08T01:28:46;51.00;;;28.33;;
43678;SDS011;29279;50.858;4.392;2022-12-08T01:31:12;49.10;;;27.17;;
43678;SDS011;29279;50.858;4.392;2022-12-08T01:33:42;54.92;;;28.17;;
43678;SDS011;29279;50.858;4.392;2022-12-08T01:36:16;56.65;;;29.10;;
43678;SDS011;29279;50.858;4.392;2022-12-08T01:38:44;49.00;;;26.73;;
43678;SDS011;29279;50.858;4.392;2022-12-08T01:41:17;55.83;;;28.42;;
43678;SDS011;29279;50.858;4.392;2022-12-08T01:43:55;49.53;;;27.40;;
43678;SDS011;29279;50.858;4.392;2022-12-08T01:46:32;54.80;;;27.02;;
43678;SDS011;29279;50.858;4.392;2022-12-08T01:49:01;56.35;;;27.52;;
43678;SDS011;29279;50.858;4.392;2022-12-08T01:51:34;60.67;;;29.50;;
43678;SDS011;29279;50.858;4.392;2022-12-08T01:54:04;44.55;;;22.58;;
43678;SDS011;29279;50.858;4.392;2022-12-08T01:56:36;61.00;;;30.83;;
43678;SDS011;29279;50.858;4.392;2022-12-08T01:59:06;60.88;;;30.70;;
43678;SDS011;29279;50.858;4.392;2022-12-08T02:01:33;61.15;;;31.58;;
43678;SDS011;29279;50.858;4.392;2022-12-08T02:04:00;59.97;;;31.80;;
43678;SDS011;29279;50.858;4.392;2022-12-08T02:06:27;67.68;;;32.83;;
43678;SDS011;29279;50.858;4.392;2022-12-08T02:09:00;65.38;;;32.70;;
43678;SDS011;29279;50.858;4.392;2022-12-08T02:11:27;62.70;;;31.00;;
43678;SDS011;29279;50.858;4.392;2022-12-08T02:13:53;64.03;;;30.00;;
43678;SDS011;29279;50.858;4.392;2022-12-08T02:19:24;65.72;;;32.65;;
43678;SDS011;29279;50.858;4.392;2022-12-08T02:22:15;61.22;;;32.42;;
43678;SDS011;29279;50.858;4.392;2022-12-08T02:27:32;61.50;;;30.35;;
43678;SDS011;29279;50.858;4.392;2022-12-08T02:30:24;73.20;;;33.13;;
43678;SDS011;29279;50.858;4.392;2022-12-08T02:46:51;58.90;;;31.33;;
43678;SDS011;29279;50.858;4.392;2022-12-08T02:49:21;62.70;;;31.13;;
43678;SDS011;29279;50.858;4.392;2022-12-08T02:52:02;59.38;;;31.60;;
43678;SDS011;29279;50.858;4.392;2022-12-08T02:54:29;65.20;;;32.05;;
43678;SDS011;29279;50.858;4.392;2022-12-08T03:08:07;59.70;;;31.73;;
43678;SDS011;29279;50.858;4.392;2022-12-08T03:10:35;60.92;;;33.30;;
43678;SDS011;29279;50.858;4.392;2022-12-08T03:15:36;69.82;;;33.38;;
43678;SDS011;29279;50.858;4.392;2022-12-08T03:18:04;65.70;;;31.42;;
43678;SDS011;29279;50.858;4.392;2022-12-08T03:20:32;73.93;;;33.25;;
43678;SDS011;29279;50.858;4.392;2022-12-08T03:22:59;63.15;;;31.67;;
43678;SDS011;29279;50.858;4.392;2022-12-08T03:25:29;56.70;;;29.10;;
43678;SDS011;29279;50.858;4.392;2022-12-08T03:27:58;67.32;;;34.03;;
43678;SDS011;29279;50.858;4.392;2022-12-08T03:30:24;68.07;;;33.00;;
43678;SDS011;29279;50.858;4.392;2022-12-08T03:35:28;67.05;;;32.35;;
43678;SDS011;29279;50.858;4.392;2022-12-08T03:40:32;72.72;;;33.78;;
43678;SDS011;29279;50.858;4.392;2022-12-08T03:42:59;61.75;;;33.53;;
43678;SDS011;29279;50.858;4.392;2022-12-08T03:45:24;59.15;;;32.15;;
43678;SDS011;29279;50.858;4.392;2022-12-08T03:47:50;63.80;;;32.45;;
43678;SDS011;29279;50.858;4.392;2022-12-08T03:50:16;62.45;;;33.13;;
43678;SDS011;29279;50.858;4.392;2022-12-08T03:52:41;71.28;;;34.70;;
43678;SDS011;29279;50.858;4.392;2022-12-08T03:55:07;68.20;;;32.45;;
43678;SDS011;29279;50.858;4.392;2022-12-08T03:57:33;65.40;;;31.30;;
43678;SDS011;29279;50.858;4.392;2022-12-08T03:59:59;62.70;;;30.90;;
43678;SDS011;29279;50.858;4.392;2022-12-08T04:02:25;54.50;;;29.60;;
43678;SDS011;29279;50.858;4.392;2022-12-08T04:04:51;61.28;;;30.77;;
43678;SDS011;29279;50.858;4.392;2022-12-08T04:07:17;57.03;;;30.27;;
43678;SDS011;29279;50.858;4.392;2022-12-08T04:09:42;60.72;;;30.27;;
43678;SDS011;29279;50.858;4.392;2022-12-08T04:12:09;59.72;;;29.75;;
43678;SDS011;29279;50.858;4.392;2022-12-08T04:14:35;57.20;;;27.70;;
43678;SDS011;29279;50.858;4.392;2022-12-08T04:17:00;59.35;;;29.67;;
43678;SDS011;29279;50.858;4.392;2022-12-08T04:19:26;62.53;;;29.65;;
43678;SDS011;29279;50.858;4.392;2022-12-08T04:21:52;61.20;;;29.13;;
43678;SDS011;29279;50.858;4.392;2022-12-08T04:24:17;54.17;;;28.13;;
43678;SDS011;29279;50.858;4.392;2022-12-08T04:26:46;53.80;;;28.50;;
43678;SDS011;29279;50.858;4.392;2022-12-08T04:29:13;55.33;;;28.63;;
43678;SDS011;29279;50.858;4.392;2022-12-08T04:31:39;58.38;;;27.80;;
43678;SDS011;29279;50.858;4.392;2022-12-08T04:34:08;51.00;;;27.77;;
43678;SDS011;29279;50.858;4.392;2022-12-08T04:36:34;52.53;;;27.77;;
43678;SDS011;29279;50.858;4.392;2022-12-08T04:39:00;50.20;;;27.80;;
43678;SDS011;29279;50.858;4.392;2022-12-08T04:41:25;54.08;;;27.85;;
43678;SDS011;29279;50.858;4.392;2022-12-08T04:43:52;57.22;;;27.35;;
43678;SDS011;29279;50.858;4.392;2022-12-08T04:46:18;64.45;;;27.10;;
43678;SDS011;29279;50.858;4.392;2022-12-08T04:48:44;49.03;;;25.17;;
43678;SDS011;29279;50.858;4.392;2022-12-08T04:51:16;53.78;;;27.33;;
43678;SDS011;29279;50.858;4.392;2022-12-08T04:53:43;46.22;;;26.27;;
43678;SDS011;29279;50.858;4.392;2022-12-08T04:56:10;50.38;;;28.27;;
43678;SDS011;29279;50.858;4.392;2022-12-08T04:58:37;51.65;;;26.42;;
43678;SDS011;29279;50.858;4.392;2022-12-08T05:01:03;51.78;;;25.92;;
43678;SDS011;29279;50.858;4.392;2022-12-08T05:03:29;53.60;;;28.17;;
43678;SDS011;29279;50.858;4.392;2022-12-08T05:05:54;52.88;;;28.52;;
43678;SDS011;29279;50.858;4.392;2022-12-08T05:08:22;53.33;;;26.77;;
43678;SDS011;29279;50.858;4.392;2022-12-08T05:10:48;58.78;;;27.85;;
43678;SDS011;29279;50.858;4.392;2022-12-08T05:13:14;63.17;;;26.75;;
43678;SDS011;29279;50.858;4.392;2022-12-08T05:15:39;50.65;;;26.80;;
43678;SDS011;29279;50.858;4.392;2022-12-08T05:18:05;48.85;;;25.88;;
43678;SDS011;29279;50.858;4.392;2022-12-08T05:20:31;53.38;;;26.17;;
43678;SDS011;29279;50.858;4.392;2022-12-08T05:22:57;47.92;;;25.90;;
43678;SDS011;29279;50.858;4.392;2022-12-08T05:25:23;44.55;;;24.95;;
43678;SDS011;29279;50.858;4.392;2022-12-08T05:27:48;43.40;;;24.50;;
43678;SDS011;29279;50.858;4.392;2022-12-08T05:30:14;46.05;;;24.08;;
43678;SDS011;29279;50.858;4.392;2022-12-08T05:32:40;54.17;;;24.08;;
43678;SDS011;29279;50.858;4.392;2022-12-08T05:35:05;51.65;;;23.48;;
43678;SDS011;29279;50.858;4.392;2022-12-08T05:37:31;48.05;;;22.63;;
43678;SDS011;29279;50.858;4.392;2022-12-08T05:39:57;50.17;;;23.52;;
43678;SDS011;29279;50.858;4.392;2022-12-08T05:42:23;46.97;;;22.45;;
43678;SDS011;29279;50.858;4.392;2022-12-08T05:44:48;47.30;;;22.17;;
43678;SDS011;29279;50.858;4.392;2022-12-08T05:47:14;46.13;;;22.80;;
43678;SDS011;29279;50.858;4.392;2022-12-08T05:49:39;53.13;;;22.90;;
43678;SDS011;29279;50.858;4.392;2022-12-08T05:52:05;46.38;;;20.13;;
43678;SDS011;29279;50.858;4.392;2022-12-08T05:54:31;46.50;;;22.70;;
43678;SDS011;29279;50.858;4.392;2022-12-08T05:56:56;42.22;;;21.02;;
43678;SDS011;29279;50.858;4.392;2022-12-08T05:59:22;50.33;;;23.30;;
43678;SDS011;29279;50.858;4.392;2022-12-08T06:01:48;47.25;;;20.67;;
43678;SDS011;29279;50.858;4.392;2022-12-08T06:04:13;43.72;;;21.23;;
43678;SDS011;29279;50.858;4.392;2022-12-08T06:06:39;40.20;;;20.88;;
43678;SDS011;29279;50.858;4.392;2022-12-08T06:09:05;40.58;;;18.67;;
43678;SDS011;29279;50.858;4.392;2022-12-08T06:11:31;37.97;;;19.10;;
43678;SDS011;29279;50.858;4.392;2022-12-08T06:13:57;42.42;;;18.58;;
43678;SDS011;29279;50.858;4.392;2022-12-08T06:16:24;42.13;;;18.67;;
43678;SDS011;29279;50.858;4.392;2022-12-08T06:18:51;41.80;;;19.00;;
43678;SDS011;29279;50.858;4.392;2022-12-08T06:21:17;33.72;;;17.70;;
43678;SDS011;29279;50.858;4.392;2022-12-08T06:23:46;34.22;;;17.73;;
43678;SDS011;29279;50.858;4.392;2022-12-08T06:26:13;37.33;;;17.15;;
43678;SDS011;29279;50.858;4.392;2022-12-08T06:28:39;44.50;;;20.60;;
43678;SDS011;29279;50.858;4.392;2022-12-08T06:31:12;39.50;;;20.30;;
43678;SDS011;29279;50.858;4.392;2022-12-08T06:33:40;34.85;;;19.98;;
43678;SDS011;29279;50.858;4.392;2022-12-08T06:36:06;40.22;;;19.63;;
43678;SDS011;29279;50.858;4.392;2022-12-08T06:38:32;39.03;;;19.58;;
43678;SDS011;29279;50.858;4.392;2022-12-08T06:40:58;42.45;;;19.35;;
43678;SDS011;29279;50.858;4.392;2022-12-08T06:43:25;41.38;;;19.83;;
43678;SDS011;29279;50.858;4.392;2022-12-08T06:45:51;36.25;;;18.98;;
43678;SDS011;29279;50.858;4.392;2022-12-08T06:48:17;39.92;;;18.65;;
43678;SDS011;29279;50.858;4.392;2022-12-08T06:50:43;33.70;;;18.40;;
43678;SDS011;29279;50.858;4.392;2022-12-08T06:53:15;47.33;;;18.83;;
43678;SDS011;29279;50.858;4.392;2022-12-08T06:55:44;35.72;;;17.92;;
43678;SDS011;29279;50.858;4.392;2022-12-08T06:58:18;39.42;;;18.58;;
43678;SDS011;29279;50.858;4.392;2022-12-08T07:00:44;44.33;;;17.98;;
43678;SDS011;29279;50.858;4.392;2022-12-08T07:03:11;47.75;;;19.25;;
43678;SDS011;29279;50.858;4.392;2022-12-08T07:05:37;34.40;;;18.40;;
43678;SDS011;29279;50.858;4.392;2022-12-08T07:08:03;34.08;;;18.00;;
43678;SDS011;29279;50.858;4.392;2022-12-08T07:10:30;28.67;;;15.20;;
43678;SDS011;29279;50.858;4.392;2022-12-08T07:12:56;41.13;;;18.42;;
43678;SDS011;29279;50.858;4.392;2022-12-08T07:15:22;36.85;;;17.95;;
43678;SDS011;29279;50.858;4.392;2022-12-08T07:17:48;40.40;;;17.35;;
43678;SDS011;29279;50.858;4.392;2022-12-08T07:20:14;37.47;;;18.15;;
43678;SDS011;29279;50.858;4.392;2022-12-08T07:22:39;34.75;;;16.15;;
43678;SDS011;29279;50.858;4.392;2022-12-08T07:25:06;36.78;;;17.70;;
43678;SDS011;29279;50.858;4.392;2022-12-08T07:27:32;44.35;;;17.55;;
43678;SDS011;29279;50.858;4.392;2022-12-08T07:29:57;35.20;;;17.40;;
43678;SDS011;29279;50.858;4.392;2022-12-08T07:32:23;41.40;;;18.13;;
43678;SDS011;29279;50.858;4.392;2022-12-08T07:34:48;42.92;;;18.48;;
43678;SDS011;29279;50.858;4.392;2022-12-08T07:37:14;36.67;;;17.02;;
43678;SDS011;29279;50.858;4.392;2022-12-08T07:39:40;38.47;;;17.70;;
43678;SDS011;29279;50.858;4.392;2022-12-08T07:42:05;35.05;;;16.95;;
43678;SDS011;29279;50.858;4.392;2022-12-08T07:44:31;42.80;;;17.70;;
43678;SDS011;29279;50.858;4.392;2022-12-08T07:46:57;35.50;;;17.15;;
43678;SDS011;29279;50.858;4.392;2022-12-08T07:49:22;40.72;;;18.60;;
43678;SDS011;29279;50.858;4.392;2022-12-08T07:51:48;33.75;;;17.13;;
43678;SDS011;29279;50.858;4.392;2022-12-08T07:54:14;41.28;;;19.17;;
43678;SDS011;29279;50.858;4.392;2022-12-08T07:56:39;45.80;;;19.40;;
43678;SDS011;29279;50.858;4.392;2022-12-08T07:59:05;42.95;;;18.85;;
43678;SDS011;29279;50.858;4.392;2022-12-08T08:01:32;40.83;;;18.70;;
43678;SDS011;29279;50.858;4.392;2022-12-08T08:03:59;39.55;;;18.05;;
43678;SDS011;29279;50.858;4.392;2022-12-08T08:06:26;42.90;;;17.70;;
43678;SDS011;29279;50.858;4.392;2022-12-08T08:08:52;44.10;;;19.25;;
43678;SDS011;29279;50.858;4.392;2022-12-08T08:11:18;39.75;;;16.67;;
43678;SDS011;29279;50.858;4.392;2022-12-08T08:13:44;40.25;;;15.95;;
43678;SDS011;29279;50.858;4.392;2022-12-08T08:16:10;41.33;;;18.95;;
43678;SDS011;29279;50.858;4.392;2022-12-08T08:18:37;43.25;;;18.50;;
43678;SDS011;29279;50.858;4.392;2022-12-08T08:21:04;35.55;;;17.85;;
43678;SDS011;29279;50.858;4.392;2022-12-08T08:23:30;39.83;;;18.30;;
43678;SDS011;29279;50.858;4.392;2022-12-08T08:26:03;42.00;;;19.15;;
43678;SDS011;29279;50.858;4.392;2022-12-08T08:30:56;41.63;;;18.35;;
43678;SDS011;29279;50.858;4.392;2022-12-08T08:33:22;39.22;;;18.15;;
43678;SDS011;29279;50.858;4.392;2022-12-08T08:35:48;39.53;;;17.20;;
43678;SDS011;29279;50.858;4.392;2022-12-08T08:38:13;39.10;;;18.45;;
43678;SDS011;29279;50.858;4.392;2022-12-08T08:40:39;33.65;;;17.17;;
43678;SDS011;29279;50.858;4.392;2022-12-08T08:43:05;40.80;;;18.33;;
43678;SDS011;29279;50.858;4.392;2022-12-08T08:45:32;45.65;;;18.08;;
43678;SDS011;29279;50.858;4.392;2022-12-08T08:47:58;38.00;;;19.40;;
43678;SDS011;29279;50.858;4.392;2022-12-08T08:50:23;44.20;;;20.02;;
43678;SDS011;29279;50.858;4.392;2022-12-08T08:52:49;39.45;;;19.40;;
43678;SDS011;29279;50.858;4.392;2022-12-08T08:55:15;40.38;;;19.13;;
43678;SDS011;29279;50.858;4.392;2022-12-08T08:57:41;40.50;;;19.45;;
43678;SDS011;29279;50.858;4.392;2022-12-08T09:00:07;47.35;;;20.65;;
43678;SDS011;29279;50.858;4.392;2022-12-08T09:02:34;51.05;;;20.88;;
43678;SDS011;29279;50.858;4.392;2022-12-08T09:05:01;49.00;;;20.98;;
43678;SDS011;29279;50.858;4.392;2022-12-08T09:07:27;47.42;;;21.13;;
43678;SDS011;29279;50.858;4.392;2022-12-08T09:09:52;44.75;;;20.27;;
43678;SDS011;29279;50.858;4.392;2022-12-08T09:12:19;49.25;;;21.27;;
43678;SDS011;29279;50.858;4.392;2022-12-08T09:14:46;50.00;;;20.90;;
43678;SDS011;29279;50.858;4.392;2022-12-08T09:17:11;44.08;;;20.50;;
43678;SDS011;29279;50.858;4.392;2022-12-08T09:19:37;38.28;;;20.40;;
43678;SDS011;29279;50.858;4.392;2022-12-08T09:22:03;39.95;;;19.55;;
43678;SDS011;29279;50.858;4.392;2022-12-08T09:24:29;44.10;;;19.90;;
43678;SDS011;29279;50.858;4.392;2022-12-08T09:26:55;55.95;;;19.23;;
43678;SDS011;29279;50.858;4.392;2022-12-08T09:29:20;40.08;;;18.35;;
43678;SDS011;29279;50.858;4.392;2022-12-08T09:31:46;43.22;;;17.58;;
43678;SDS011;29279;50.858;4.392;2022-12-08T09:34:12;40.17;;;20.17;;
43678;SDS011;29279;50.858;4.392;2022-12-08T09:36:38;40.28;;;17.50;;
43678;SDS011;29279;50.858;4.392;2022-12-08T09:39:04;39.35;;;18.05;;
43678;SDS011;29279;50.858;4.392;2022-12-08T09:41:41;39.50;;;17.58;;
43678;SDS011;29279;50.858;4.392;2022-12-08T09:44:25;40.10;;;17.75;;
43678;SDS011;29279;50.858;4.392;2022-12-08T09:47:28;40.95;;;16.90;;
43678;SDS011;29279;50.858;4.392;2022-12-08T09:58:12;41.70;;;18.48;;
43678;SDS011;29279;50.858;4.392;2022-12-08T10:00:54;34.53;;;17.05;;
43678;SDS011;29279;50.858;4.392;2022-12-08T10:03:20;41.70;;;18.15;;
43678;SDS011;29279;50.858;4.392;2022-12-08T10:05:56;43.50;;;17.75;;
43678;SDS011;29279;50.858;4.392;2022-12-08T10:16:43;33.20;;;14.63;;
43678;SDS011;29279;50.858;4.392;2022-12-08T10:19:20;41.05;;;15.93;;
43678;SDS011;29279;50.858;4.392;2022-12-08T10:21:47;41.35;;;14.88;;
43678;SDS011;29279;50.858;4.392;2022-12-08T10:24:21;37.42;;;15.25;;
43678;SDS011;29279;50.858;4.392;2022-12-08T10:26:48;46.25;;;15.50;;
43678;SDS011;29279;50.858;4.392;2022-12-08T10:29:14;30.60;;;13.52;;
43678;SDS011;29279;50.858;4.392;2022-12-08T10:31:40;23.52;;;13.32;;
43678;SDS011;29279;50.858;4.392;2022-12-08T10:34:13;26.73;;;13.32;;
43678;SDS011;29279;50.858;4.392;2022-12-08T10:41:59;29.20;;;13.73;;
43678;SDS011;29279;50.858;4.392;2022-12-08T10:47:23;32.38;;;13.85;;
43678;SDS011;29279;50.858;4.392;2022-12-08T10:55:46;23.73;;;11.93;;
43678;SDS011;29279;50.858;4.392;2022-12-08T10:58:31;28.88;;;13.25;;
43678;SDS011;29279;50.858;4.392;2022-12-08T11:01:01;24.95;;;12.43;;
43678;SDS011;29279;50.858;4.392;2022-12-08T11:03:42;27.33;;;12.50;;
43678;SDS011;29279;50.858;4.392;2022-12-08T11:06:18;27.38;;;12.25;;
43678;SDS011;29279;50.858;4.392;2022-12-08T11:08:47;29.48;;;12.57;;
43678;SDS011;29279;50.858;4.392;2022-12-08T11:11:16;24.45;;;12.25;;
43678;SDS011;29279;50.858;4.392;2022-12-08T11:13:43;29.17;;;12.15;;
43678;SDS011;29279;50.858;4.392;2022-12-08T11:16:12;26.25;;;12.50;;
43678;SDS011;29279;50.858;4.392;2022-12-08T11:19:03;27.75;;;12.25;;
43678;SDS011;29279;50.858;4.392;2022-12-08T11:21:34;22.10;;;11.23;;
43678;SDS011;29279;50.858;4.392;2022-12-08T11:26:39;25.38;;;11.57;;
43678;SDS011;29279;50.858;4.392;2022-12-08T11:29:11;30.95;;;11.95;;
43678;SDS011;29279;50.858;4.392;2022-12-08T11:31:38;26.73;;;10.45;;
43678;SDS011;29279;50.858;4.392;2022-12-08T11:34:09;25.77;;;12.15;;
43678;SDS011;29279;50.858;4.392;2022-12-08T11:36:55;22.48;;;10.95;;
43678;SDS011;29279;50.858;4.392;2022-12-08T11:39:24;24.83;;;11.93;;
43678;SDS011;29279;50.858;4.392;2022-12-08T11:41:52;23.13;;;10.65;;
43678;SDS011;29279;50.858;4.392;2022-12-08T11:44:44;26.90;;;12.35;;
43678;SDS011;29279;50.858;4.392;2022-12-08T11:47:15;20.15;;;11.38;;
43678;SDS011;29279;50.858;4.392;2022-12-08T11:49:43;22.63;;;11.38;;
43678;SDS011;29279;50.858;4.392;2022-12-08T11:52:23;21.98;;;11.82;;
43678;SDS011;29279;50.858;4.392;2022-12-08T11:55:01;21.08;;;10.35;;
43678;SDS011;29279;50.858;4.392;2022-12-08T11:57:55;21.85;;;11.15;;
43678;SDS011;29279;50.858;4.392;2022-12-08T12:00:25;23.00;;;11.90;;
43678;SDS011;29279;50.858;4.392;2022-12-08T12:02:55;21.42;;;10.75;;
43678;SDS011;29279;50.858;4.392;2022-12-08T12:18:50;21.75;;;11.18;;
43678;SDS011;29279;50.858;4.392;2022-12-08T12:21:41;22.15;;;10.18;;
43678;SDS011;29279;50.858;4.392;2022-12-08T12:24:14;20.45;;;10.00;;
43678;SDS011;29279;50.858;4.392;2022-12-08T12:26:55;20.95;;;11.05;;
43678;SDS011;29279;50.858;4.392;2022-12-08T12:29:26;20.20;;;9.98;;
43678;SDS011;29279;50.858;4.392;2022-12-08T12:32:16;21.40;;;9.55;;
43678;SDS011;29279;50.858;4.392;2022-12-08T12:34:49;27.90;;;10.30;;
43678;SDS011;29279;50.858;4.392;2022-12-08T12:37:24;21.70;;;9.77;;
43678;SDS011;29279;50.858;4.392;2022-12-08T12:40:00;21.85;;;9.77;;
43678;SDS011;29279;50.858;4.392;2022-12-08T12:42:39;28.13;;;9.50;;
43678;SDS011;29279;50.858;4.392;2022-12-08T12:45:49;18.67;;;9.30;;
43678;SDS011;29279;50.858;4.392;2022-12-08T12:52:58;27.10;;;10.13;;
43678;SDS011;29279;50.858;4.392;2022-12-08T13:03:47;25.02;;;9.70;;
43678;SDS011;29279;50.858;4.392;2022-12-08T13:06:22;18.90;;;8.80;;
43678;SDS011;29279;50.858;4.392;2022-12-08T13:08:57;20.00;;;9.10;;
43678;SDS011;29279;50.858;4.392;2022-12-08T13:11:24;21.67;;;9.60;;
43678;SDS011;29279;50.858;4.392;2022-12-08T13:13:57;21.48;;;9.60;;
43678;SDS011;29279;50.858;4.392;2022-12-08T13:16:25;20.95;;;8.77;;
43678;SDS011;29279;50.858;4.392;2022-12-08T13:18:58;20.77;;;7.78;;
43678;SDS011;29279;50.858;4.392;2022-12-08T13:21:32;24.40;;;9.20;;
43678;SDS011;29279;50.858;4.392;2022-12-08T13:26:44;16.83;;;8.63;;
43678;SDS011;29279;50.858;4.392;2022-12-08T13:29:12;21.20;;;9.23;;
43678;SDS011;29279;50.858;4.392;2022-12-08T13:31:55;22.13;;;9.20;;
43678;SDS011;29279;50.858;4.392;2022-12-08T13:34:30;18.15;;;8.23;;
43678;SDS011;29279;50.858;4.392;2022-12-08T13:44:44;17.25;;;8.07;;
43678;SDS011;29279;50.858;4.392;2022-12-08T13:47:12;21.45;;;8.52;;
43678;SDS011;29279;50.858;4.392;2022-12-08T13:49:43;19.05;;;7.78;;
43678;SDS011;29279;50.858;4.392;2022-12-08T13:52:31;23.58;;;7.68;;
43678;SDS011;29279;50.858;4.392;2022-12-08T13:55:02;21.23;;;8.35;;
43678;SDS011;29279;50.858;4.392;2022-12-08T13:57:31;21.20;;;8.07;;
43678;SDS011;29279;50.858;4.392;2022-12-08T13:59:59;22.85;;;7.68;;
43678;SDS011;29279;50.858;4.392;2022-12-08T14:02:27;22.58;;;9.15;;
43678;SDS011;29279;50.858;4.392;2022-12-08T14:05:00;31.42;;;8.05;;
43678;SDS011;29279;50.858;4.392;2022-12-08T14:07:26;20.45;;;7.65;;
43678;SDS011;29279;50.858;4.392;2022-12-08T14:09:52;20.42;;;7.63;;
43678;SDS011;29279;50.858;4.392;2022-12-08T14:12:19;17.48;;;7.47;;
43678;SDS011;29279;50.858;4.392;2022-12-08T14:14:51;15.60;;;7.18;;
43678;SDS011;29279;50.858;4.392;2022-12-08T14:17:21;20.15;;;8.13;;
43678;SDS011;29279;50.858;4.392;2022-12-08T14:22:37;25.73;;;9.50;;
43678;SDS011;29279;50.858;4.392;2022-12-08T14:25:05;22.80;;;7.82;;
43678;SDS011;29279;50.858;4.392;2022-12-08T14:27:35;12.73;;;5.82;;
43678;SDS011;29279;50.858;4.392;2022-12-08T14:30:06;12.68;;;4.25;;
43678;SDS011;29279;50.858;4.392;2022-12-08T14:32:42;6.90;;;3.67;;
43678;SDS011;29279;50.858;4.392;2022-12-08T14:35:17;11.88;;;4.32;;
43678;SDS011;29279;50.858;4.392;2022-12-08T14:37:47;10.63;;;4.38;;
43678;SDS011;29279;50.858;4.392;2022-12-08T14:56:06;17.02;;;5.13;;
43678;SDS011;29279;50.858;4.392;2022-12-08T14:58:36;9.35;;;5.63;;
43678;SDS011;29279;50.858;4.392;2022-12-08T15:01:02;10.10;;;5.18;;
43678;SDS011;29279;50.858;4.392;2022-12-08T15:03:32;13.25;;;6.30;;
43678;SDS011;29279;50.858;4.392;2022-12-08T15:05:59;10.25;;;5.30;;
43678;SDS011;29279;50.858;4.392;2022-12-08T15:08:30;13.63;;;5.97;;
43678;SDS011;29279;50.858;4.392;2022-12-08T15:13:59;16.60;;;7.15;;
43678;SDS011;29279;50.858;4.392;2022-12-08T15:16:29;17.05;;;6.00;;
43678;SDS011;29279;50.858;4.392;2022-12-08T15:21:36;9.02;;;5.25;;
43678;SDS011;29279;50.858;4.392;2022-12-08T15:24:02;14.32;;;5.93;;
43678;SDS011;29279;50.858;4.392;2022-12-08T15:26:28;20.50;;;6.38;;
43678;SDS011;29279;50.858;4.392;2022-12-08T15:29:12;22.13;;;7.45;;
43678;SDS011;29279;50.858;4.392;2022-12-08T15:31:49;17.35;;;7.63;;
43678;SDS011;29279;50.858;4.392;2022-12-08T15:34:16;16.38;;;7.18;;
43678;SDS011;29279;50.858;4.392;2022-12-08T15:36:42;23.95;;;7.22;;
43678;SDS011;29279;50.858;4.392;2022-12-08T15:41:56;25.25;;;8.95;;
43678;SDS011;29279;50.858;4.392;2022-12-08T15:44:23;22.85;;;9.13;;
43678;SDS011;29279;50.858;4.392;2022-12-08T15:46:48;18.52;;;7.75;;
43678;SDS011;29279;50.858;4.392;2022-12-08T15:49:21;18.05;;;7.65;;
43678;SDS011;29279;50.858;4.392;2022-12-08T15:51:48;15.02;;;7.75;;
43678;SDS011;29279;50.858;4.392;2022-12-08T15:54:15;16.85;;;7.93;;
43678;SDS011;29279;50.858;4.392;2022-12-08T15:56:44;13.32;;;7.68;;
43678;SDS011;29279;50.858;4.392;2022-12-08T15:59:16;21.13;;;8.52;;
43678;SDS011;29279;50.858;4.392;2022-12-08T16:01:44;20.23;;;9.45;;
43678;SDS011;29279;50.858;4.392;2022-12-08T16:04:13;15.73;;;8.82;;
43678;SDS011;29279;50.858;4.392;2022-12-08T16:06:45;17.40;;;7.32;;
43678;SDS011;29279;50.858;4.392;2022-12-08T16:11:45;12.70;;;6.68;;
43678;SDS011;29279;50.858;4.392;2022-12-08T16:14:29;12.70;;;6.20;;
43678;SDS011;29279;50.858;4.392;2022-12-08T16:16:55;13.50;;;6.38;;
43678;SDS011;29279;50.858;4.392;2022-12-08T16:19:21;9.60;;;5.45;;
43678;SDS011;29279;50.858;4.392;2022-12-08T16:21:47;13.27;;;5.97;;
43678;SDS011;29279;50.858;4.392;2022-12-08T16:24:12;10.57;;;5.85;;
43678;SDS011;29279;50.858;4.392;2022-12-08T16:26:38;9.18;;;5.85;;
43678;SDS011;29279;50.858;4.392;2022-12-08T16:29:04;7.88;;;5.40;;
43678;SDS011;29279;50.858;4.392;2022-12-08T16:31:30;8.98;;;5.22;;
43678;SDS011;29279;50.858;4.392;2022-12-08T16:33:56;9.15;;;5.70;;
43678;SDS011;29279;50.858;4.392;2022-12-08T16:36:21;9.95;;;5.43;;
43678;SDS011;29279;50.858;4.392;2022-12-08T16:38:47;8.95;;;5.20;;
43678;SDS011;29279;50.858;4.392;2022-12-08T16:41:13;8.57;;;5.18;;
43678;SDS011;29279;50.858;4.392;2022-12-08T16:44:01;9.10;;;4.68;;
43678;SDS011;29279;50.858;4.392;2022-12-08T16:46:29;9.20;;;4.95;;
43678;SDS011;29279;50.858;4.392;2022-12-08T16:48:54;10.00;;;5.07;;
43678;SDS011;29279;50.858;4.392;2022-12-08T16:51:23;13.45;;;6.43;;
43678;SDS011;29279;50.858;4.392;2022-12-08T16:53:50;11.05;;;6.00;;
43678;SDS011;29279;50.858;4.392;2022-12-08T16:56:16;12.35;;;6.75;;